Time;durP1;ratioP1;P1;durP2;ratioP2;P2;SDS_P1;SDS_P2;PMS_P1;PMS_P2;Temp;Humidity;BMP_temperature;BMP_pressure;BME280_temperature;BME280_humidity;BME280_pressure;Samples;Min_cycle;Max_cycle;Signal;HPM_P1;HPM_P2
2021/12/17 00:00:40;;;;;;;6.35;4.30;;;7.90;99.90;;;;;;5091970;28;20027;-82
2021/12/17 00:08:16;;;;;;;7.15;3.22;;;7.60;99.90;;;;;;5089062;28;20383;-82
2021/12/17 00:10:44;;;;;;;7.13;2.97;;;7.40;99.90;;;;;;5087264;28;20058;-82
2021/12/17 00:13:11;;;;;;;3.30;2.80;;;7.40;99.90;;;;;;5086485;28;20115;-80
2021/12/17 00:15:38;;;;;;;4.72;2.70;;;7.50;99.90;;;;;;5088932;28;20483;-81
2021/12/17 00:18:14;;;;;;;2.78;2.55;;;7.50;99.90;;;;;;5091926;28;20509;-82
2021/12/17 00:53:06;;;;;;;5.43;3.90;;;6.40;99.90;;;;;;5084442;28;20101;-81
2021/12/17 00:55:32;;;;;;;5.03;3.45;;;6.50;99.90;;;;;;5092335;28;20207;-81
2021/12/17 00:57:58;;;;;;;3.63;2.70;;;6.50;99.90;;;;;;5092356;28;20470;-81
2021/12/17 01:00:24;;;;;;;4.05;3.25;;;6.80;99.90;;;;;;5092110;28;20020;-81
2021/12/17 01:02:50;;;;;;;4.38;2.33;;;6.90;99.90;;;;;;5091881;28;20540;-80
2021/12/17 01:05:20;;;;;;;2.35;2.10;;;7.10;99.90;;;;;;5091595;28;20085;-80
2021/12/17 01:07:49;;;;;;;3.10;2.60;;;7.20;99.90;;;;;;5091821;28;20486;-81
2021/12/17 01:10:20;;;;;;;4.80;2.60;;;7.20;99.90;;;;;;5084913;28;20024;-81
2021/12/17 01:12:46;;;;;;;2.30;2.10;;;7.20;99.90;;;;;;5091189;28;20032;-82
2021/12/17 01:15:16;;;;;;;1.92;1.80;;;7.10;99.90;;;;;;5091117;28;20069;-80
2021/12/17 01:17:44;;;;;;;4.60;2.80;;;7.40;99.90;;;;;;5087838;28;20046;-79
2021/12/17 01:23:10;;;;;;;3.05;2.28;;;7.50;99.90;;;;;;5092093;28;20092;-78
2021/12/17 01:35:18;;;;;;;2.95;2.33;;;7.40;99.90;;;;;;5085947;28;20020;-79
2021/12/17 01:36:32;;;;;;;6.55;3.38;;;7.30;99.90;;;;;;5088122;28;20085;-82
2021/12/17 01:40:04;;;;;;;11.73;6.30;;;7.20;99.90;;;;;;5088368;28;20029;-80
2021/12/17 01:42:06;;;;;;;4.35;2.97;;;7.10;99.90;;;;;;5089601;28;20040;-81
2021/12/17 01:44:38;;;;;;;7.53;4.35;;;7.10;99.90;;;;;;5084933;28;20039;-80
2021/12/17 01:47:06;;;;;;;9.30;5.93;;;7.10;99.90;;;;;;5119170;27;20442;-80
2021/12/17 02:00:20;;;;;;;6.03;4.18;;;6.80;99.90;;;;;;5086948;28;20039;-80
2021/12/17 02:02:56;;;;;;;4.97;3.50;;;6.70;99.90;;;;;;5090621;28;20024;-81
2021/12/17 02:05:22;;;;;;;6.03;3.75;;;6.60;99.90;;;;;;5084594;28;20067;-81
2021/12/17 02:07:51;;;;;;;6.78;3.63;;;6.50;99.90;;;;;;5090507;28;20079;-80
2021/12/17 02:19:25;;;;;;;4.07;2.80;;;6.40;99.90;;;;;;5090016;28;20084;-80
2021/12/17 02:21:29;;;;;;;2.42;2.20;;;6.50;99.90;;;;;;5088502;28;20094;-79
2021/12/17 02:32:11;;;;;;;2.75;1.20;;;7.70;99.90;;;;;;5090642;28;20081;-80
2021/12/17 02:37:09;;;;;;;1.75;1.60;;;8.10;99.90;;;;;;5090124;28;20544;-79
2021/12/17 02:42:37;;;;;;;3.30;1.70;;;8.20;99.90;;;;;;5087955;28;20551;-79
2021/12/17 02:48:07;;;;;;;6.35;2.42;;;8.20;99.90;;;;;;5088773;28;20080;-78
2021/12/17 02:50:39;;;;;;;3.15;2.08;;;8.00;99.90;;;;;;5086774;28;20039;-79
2021/12/17 02:53:08;;;;;;;2.53;2.20;;;7.90;99.90;;;;;;5087386;28;20016;-79
2021/12/17 02:55:39;;;;;;;2.35;2.00;;;7.80;99.90;;;;;;5089893;28;20039;-79
2021/12/17 02:58:06;;;;;;;2.55;1.70;;;7.70;99.90;;;;;;5088724;28;20020;-79
2021/12/17 03:00:34;;;;;;;3.58;2.15;;;7.70;99.90;;;;;;5089990;28;20024;-79
2021/12/17 03:03:03;;;;;;;2.17;1.77;;;7.70;99.90;;;;;;5089039;28;20031;-79
2021/12/17 03:05:29;;;;;;;1.67;1.58;;;7.60;99.90;;;;;;5084283;28;20028;-79
2021/12/17 03:07:56;;;;;;;3.97;1.58;;;7.50;99.90;;;;;;5089655;28;20043;-79
2021/12/17 03:10:24;;;;;;;2.08;1.63;;;7.50;99.90;;;;;;5078659;28;20027;-78
2021/12/17 03:12:54;;;;;;;1.80;1.70;;;7.60;99.90;;;;;;5089565;28;20021;-79
2021/12/17 03:26:20;;;;;;;1.45;1.35;;;8.00;99.90;;;;;;5070844;28;20030;-79
2021/12/17 03:28:49;;;;;;;1.75;1.63;;;7.90;99.90;;;;;;5071094;28;20028;-79
2021/12/17 03:31:17;;;;;;;1.77;1.67;;;7.90;99.90;;;;;;5070287;28;20028;-81
2021/12/17 03:33:44;;;;;;;6.20;3.10;;;7.80;99.90;;;;;;5092526;28;20109;-78
2021/12/17 03:36:14;;;;;;;2.40;2.20;;;7.70;99.90;;;;;;5090865;28;20390;-78
2021/12/17 03:38:41;;;;;;;2.55;1.70;;;7.40;99.90;;;;;;5092292;28;20020;-78
2021/12/17 03:41:27;;;;;;;3.22;2.40;;;7.30;99.90;;;;;;5089935;28;20044;-78
2021/12/17 03:43:56;;;;;;;4.85;2.30;;;7.20;99.90;;;;;;5090936;28;20475;-78
2021/12/17 03:46:22;;;;;;;2.78;2.15;;;7.10;99.90;;;;;;5092976;28;20482;-78
2021/12/17 03:48:48;;;;;;;2.22;2.03;;;7.10;99.90;;;;;;5089632;28;20012;-78
2021/12/17 03:51:16;;;;;;;3.28;2.15;;;7.10;99.90;;;;;;5091717;28;20066;-78
2021/12/17 03:53:46;;;;;;;5.38;2.42;;;7.30;99.90;;;;;;5087444;28;20024;-78
2021/12/17 03:56:12;;;;;;;3.00;1.95;;;7.30;99.90;;;;;;5091195;28;20359;-78
2021/12/17 03:58:38;;;;;;;2.78;1.90;;;7.30;99.90;;;;;;5092896;28;20031;-78
2021/12/17 04:01:04;;;;;;;4.22;1.80;;;7.30;99.90;;;;;;5091613;28;20424;-78
2021/12/17 04:03:30;;;;;;;2.78;2.03;;;7.20;99.90;;;;;;5086188;28;20606;-78
2021/12/17 04:05:56;;;;;;;5.55;2.88;;;7.10;99.90;;;;;;5090648;28;20048;-78
2021/12/17 04:08:22;;;;;;;6.25;3.15;;;7.00;99.90;;;;;;5091325;28;20054;-78
2021/12/17 04:10:50;;;;;;;10.25;3.00;;;7.00;99.90;;;;;;5092214;28;20024;-78
2021/12/17 04:15:56;;;;;;;4.97;2.87;;;7.00;99.90;;;;;;5092695;28;20028;-81
2021/12/17 04:18:21;;;;;;;5.10;2.45;;;7.00;99.90;;;;;;5092464;28;20028;-81
2021/12/17 04:20:47;;;;;;;7.15;1.92;;;6.90;99.90;;;;;;5088719;28;20026;-80
2021/12/17 04:23:13;;;;;;;4.38;2.10;;;7.00;99.90;;;;;;5090265;28;20051;-78
2021/12/17 04:25:39;;;;;;;2.97;1.88;;;7.30;99.90;;;;;;5089698;28;20417;-78
2021/12/17 04:28:04;;;;;;;4.05;2.25;;;7.40;99.90;;;;;;5091938;28;20028;-80
2021/12/17 04:30:31;;;;;;;2.95;1.95;;;7.40;99.90;;;;;;5092010;28;20126;-81
2021/12/17 04:32:57;;;;;;;2.67;1.60;;;7.40;99.90;;;;;;5089441;28;20391;-81
2021/12/17 04:35:23;;;;;;;3.55;1.88;;;7.40;99.90;;;;;;5091468;28;20016;-81
2021/12/17 04:37:49;;;;;;;3.03;1.55;;;7.50;99.90;;;;;;5091500;28;20020;-77
2021/12/17 04:40:15;;;;;;;2.10;1.63;;;7.80;99.90;;;;;;5090675;28;20097;-78
2021/12/17 04:45:07;;;;;;;2.10;1.55;;;7.80;99.90;;;;;;5092445;28;20024;-81
2021/12/17 04:58:30;;;;;;;2.25;2.00;;;7.50;99.90;;;;;;5091296;28;20040;-81
2021/12/17 05:00:57;;;;;;;1.70;1.52;;;7.40;99.90;;;;;;5088400;28;20383;-81
2021/12/17 05:03:23;;;;;;;1.40;1.30;;;7.40;99.90;;;;;;5089793;28;20020;-81
2021/12/17 05:05:49;;;;;;;2.13;1.67;;;7.30;99.90;;;;;;5091656;28;20463;-81
2021/12/17 05:08:18;;;;;;;1.73;1.60;;;7.20;99.90;;;;;;5092369;28;20479;-80
2021/12/17 05:19:05;;;;;;;1.50;1.40;;;6.90;99.90;;;;;;5091377;28;20035;-81
2021/12/17 05:21:30;;;;;;;9.02;3.45;;;6.80;99.90;;;;;;5088899;28;20267;-79
2021/12/17 05:23:56;;;;;;;6.22;3.10;;;6.60;99.90;;;;;;5087851;28;20665;-78
2021/12/17 05:26:22;;;;;;;5.90;3.40;;;6.50;99.90;;;;;;5090513;28;20032;-80
2021/12/17 05:28:50;;;;;;;15.07;4.88;;;6.30;99.90;;;;;;5089948;28;20177;-78
2021/12/17 05:31:18;;;;;;;21.60;7.55;;;6.20;99.90;;;;;;5083545;28;20020;-78
2021/12/17 05:33:44;;;;;;;19.63;6.63;;;6.10;99.90;;;;;;5087181;28;20380;-78
2021/12/17 05:36:10;;;;;;;17.08;5.78;;;6.10;99.90;;;;;;5087271;28;20035;-79
2021/12/17 05:38:35;;;;;;;9.25;3.90;;;6.00;99.90;;;;;;5087875;28;20024;-79
2021/12/17 05:41:01;;;;;;;13.85;3.88;;;6.00;99.90;;;;;;5088958;28;20546;-79
2021/12/17 05:43:28;;;;;;;7.82;3.45;;;6.00;99.90;;;;;;5089751;28;20027;-80
2021/12/17 05:48:23;;;;;;;6.88;3.00;;;5.90;99.90;;;;;;5089876;28;20032;-79
2021/12/17 05:50:51;;;;;;;7.15;2.85;;;5.90;99.90;;;;;;5089259;28;20028;-81
2021/12/17 05:53:17;;;;;;;3.00;1.83;;;5.80;99.90;;;;;;5091217;28;20036;-80
2021/12/17 05:55:43;;;;;;;4.20;2.20;;;5.80;99.90;;;;;;5087869;28;20024;-80
2021/12/17 05:58:09;;;;;;;2.05;1.60;;;5.90;99.90;;;;;;5091220;28;20445;-80
2021/12/17 06:00:38;;;;;;;3.97;2.33;;;5.90;99.90;;;;;;5086020;28;20028;-80
2021/12/17 06:03:04;;;;;;;2.95;1.80;;;6.00;99.90;;;;;;5090489;28;20028;-80
2021/12/17 06:05:30;;;;;;;3.08;1.73;;;6.20;99.90;;;;;;5082232;28;20479;-80
2021/12/17 06:07:56;;;;;;;2.58;1.70;;;6.30;99.90;;;;;;5085712;28;20093;-80
2021/12/17 06:10:22;;;;;;;2.70;1.90;;;6.40;99.90;;;;;;5081296;28;20020;-80
2021/12/17 06:12:48;;;;;;;4.07;2.08;;;6.40;99.90;;;;;;5086774;28;20507;-80
2021/12/17 06:15:16;;;;;;;3.50;1.90;;;6.40;99.90;;;;;;5083512;28;20024;-80
2021/12/17 06:17:43;;;;;;;3.88;1.75;;;6.40;99.90;;;;;;5090057;28;20399;-81
2021/12/17 06:20:12;;;;;;;2.58;1.80;;;6.40;99.90;;;;;;5090250;28;20024;-81
2021/12/17 06:22:37;;;;;;;2.22;1.63;;;6.60;99.90;;;;;;5079409;28;20055;-83
2021/12/17 06:25:05;;;;;;;2.00;1.70;;;6.70;99.90;;;;;;5091480;28;20028;-82
2021/12/17 06:27:31;;;;;;;7.38;2.63;;;6.60;99.90;;;;;;5083957;28;20033;-79
2021/12/17 06:29:57;;;;;;;6.22;2.40;;;6.50;99.90;;;;;;5083564;28;20043;-78
2021/12/17 06:32:24;;;;;;;8.38;2.72;;;6.40;99.90;;;;;;5087566;28;20048;-77
2021/12/17 06:34:50;;;;;;;7.68;2.92;;;6.20;99.90;;;;;;5083697;28;20040;-82
2021/12/17 06:37:17;;;;;;;7.10;3.00;;;6.10;99.90;;;;;;5089880;28;20208;-80
2021/12/17 06:39:44;;;;;;;3.92;2.10;;;6.00;99.90;;;;;;5089528;28;20062;-79
2021/12/17 06:42:10;;;;;;;2.70;1.73;;;6.00;99.90;;;;;;5083912;28;20032;-79
2021/12/17 06:44:37;;;;;;;3.67;1.30;;;5.90;99.90;;;;;;5082916;28;20024;-79
2021/12/17 07:00:57;;;;;;;8.45;3.22;;;5.90;99.90;;;;;;5042553;28;20581;-78
2021/12/17 07:22:43;;;;;;;8.45;5.35;;;6.10;99.90;;;;;;5075545;28;20036;-79
2021/12/17 07:33:17;;;;;;;14.85;6.15;;;6.40;99.90;;;;;;5089286;28;20039;-77
2021/12/17 07:35:54;;;;;;;9.25;5.75;;;6.40;99.90;;;;;;5088430;28;20031;-79
2021/12/17 07:38:35;;;;;;;9.38;5.13;;;6.40;99.90;;;;;;5081159;28;20066;-77
2021/12/17 07:41:03;;;;;;;10.38;4.65;;;6.30;99.90;;;;;;5088719;28;20040;-77
2021/12/17 07:43:40;;;;;;;6.28;5.15;;;6.30;99.90;;;;;;5088174;28;20020;-79
2021/12/17 07:46:09;;;;;;;10.82;7.40;;;6.30;99.90;;;;;;5088821;28;20417;-79
2021/12/17 07:48:37;;;;;;;6.20;2.50;;;6.30;99.90;;;;;;5089632;28;20077;-77
2021/12/17 07:51:05;;;;;;;6.43;2.38;;;6.40;99.90;;;;;;5082811;28;20406;-79
2021/12/17 07:53:32;;;;;;;4.93;3.88;;;6.60;99.90;;;;;;5087865;28;20024;-78
2021/12/17 07:56:00;;;;;;;34.85;21.92;;;6.70;99.90;;;;;;5089269;28;20020;-78
2021/12/17 07:58:27;;;;;;;14.85;9.25;;;6.80;99.90;;;;;;5084518;28;20023;-78
2021/12/17 08:00:53;;;;;;;10.60;7.07;;;6.90;99.90;;;;;;5081376;28;20395;-78
2021/12/17 08:03:19;;;;;;;7.28;4.28;;;6.90;99.90;;;;;;5088688;28;20019;-78
2021/12/17 08:05:44;;;;;;;19.10;10.35;;;7.00;99.90;;;;;;5091476;28;20466;-78
2021/12/17 08:08:11;;;;;;;13.32;7.13;;;7.10;99.90;;;;;;5087285;28;20455;-78
2021/12/17 08:10:37;;;;;;;10.30;4.63;;;7.10;99.90;;;;;;5085446;28;20107;-78
2021/12/17 08:13:05;;;;;;;7.82;3.97;;;7.00;99.90;;;;;;5091019;28;20100;-78
2021/12/17 08:15:36;;;;;;;6.75;4.82;;;7.10;99.90;;;;;;5086917;28;20434;-78
2021/12/17 08:18:26;;;;;;;55.60;32.78;;;7.20;99.90;;;;;;5091647;28;20035;-79
2021/12/17 08:26:23;;;;;;;24.23;12.27;;;7.30;99.90;;;;;;5091629;28;20028;-78
2021/12/17 08:28:56;;;;;;;26.55;16.10;;;7.40;99.90;;;;;;5091672;28;20036;-78
2021/12/17 08:31:22;;;;;;;;;;;7.50;99.90;;;;;;5083332;28;20387;-78
2021/12/17 08:33:48;;;;;;;14.55;8.45;;;7.50;99.90;;;;;;5089588;28;19915;-78
2021/12/17 08:36:14;;;;;;;21.30;12.07;;;7.60;99.90;;;;;;5085578;28;20085;-80
2021/12/17 08:38:46;;;;;;;31.15;16.73;;;7.70;99.90;;;;;;5089221;28;20022;-79
2021/12/17 08:41:13;;;;;;;16.52;7.80;;;7.80;99.90;;;;;;5091374;28;20044;-79
2021/12/17 08:43:40;;;;;;;7.60;4.63;;;7.80;99.90;;;;;;5087858;28;20063;-77
2021/12/17 08:46:06;;;;;;;11.52;6.10;;;7.90;99.90;;;;;;5091352;28;20024;-78
2021/12/17 08:48:33;;;;;;;9.13;5.78;;;8.00;99.90;;;;;;5090983;28;20032;-79
2021/12/17 08:51:00;;;;;;;7.10;4.50;;;8.00;99.90;;;;;;5091189;28;20031;-80
2021/12/17 08:53:26;;;;;;;6.97;4.82;;;8.10;99.90;;;;;;5088232;28;20086;-79
2021/12/17 08:55:52;;;;;;;6.93;6.22;;;8.20;99.90;;;;;;5090286;28;20028;-78
2021/12/17 08:58:18;;;;;;;13.13;7.47;;;8.30;99.90;;;;;;5091926;28;20452;-79
2021/12/17 09:00:45;;;;;;;7.15;5.00;;;8.40;99.90;;;;;;5091831;28;20048;-79
2021/12/17 09:03:11;;;;;;;7.35;4.00;;;8.70;99.90;;;;;;5088052;28;20032;-79
2021/12/17 09:05:39;;;;;;;5.03;3.55;;;8.80;99.90;;;;;;5087838;28;20028;-78
2021/12/17 09:08:06;;;;;;;6.20;3.63;;;8.90;99.90;;;;;;5091209;28;20040;-78
2021/12/17 09:10:32;;;;;;;7.18;3.67;;;9.10;99.90;;;;;;5090896;28;20032;-78
2021/12/17 09:12:58;;;;;;;10.32;4.40;;;9.20;99.90;;;;;;5088516;28;20032;-77
2021/12/17 09:15:24;;;;;;;7.65;4.10;;;9.20;99.90;;;;;;5091565;28;20054;-77
2021/12/17 09:17:50;;;;;;;7.13;3.70;;;9.40;99.90;;;;;;5085504;28;20185;-78
2021/12/17 09:20:16;;;;;;;5.60;3.97;;;9.50;99.90;;;;;;5084883;28;20659;-78
2021/12/17 09:22:42;;;;;;;8.32;4.07;;;9.60;99.90;;;;;;5091357;28;20027;-78
2021/12/17 09:25:08;;;;;;;7.43;4.38;;;9.70;99.90;;;;;;5091333;28;20028;-78
2021/12/17 09:27:34;;;;;;;5.32;3.70;;;9.80;99.90;;;;;;5091532;28;20240;-79
2021/12/17 09:30:00;;;;;;;7.40;4.25;;;10.00;99.90;;;;;;5088217;28;20561;-77
2021/12/17 09:32:26;;;;;;;4.72;3.35;;;10.10;99.90;;;;;;5086790;28;20527;-77
2021/12/17 09:34:52;;;;;;;6.07;3.15;;;10.20;99.90;;;;;;5091058;28;20047;-79
2021/12/17 09:37:17;;;;;;;8.32;3.10;;;10.40;99.90;;;;;;5089683;28;20107;-78
2021/12/17 09:39:44;;;;;;;6.28;2.70;;;10.50;99.90;;;;;;5090333;28;20020;-77
2021/12/17 09:42:10;;;;;;;6.10;3.17;;;10.80;99.90;;;;;;5088508;28;20024;-76
2021/12/17 09:44:37;;;;;;;6.22;3.28;;;11.10;99.90;;;;;;5085745;28;20474;-77
2021/12/17 09:47:03;;;;;;;6.65;2.72;;;11.20;99.90;;;;;;5088570;28;20062;-77
2021/12/17 09:49:30;;;;;;;9.65;2.95;;;11.40;99.90;;;;;;5088270;28;20040;-77
2021/12/17 09:51:56;;;;;;;10.93;3.30;;;11.60;99.90;;;;;;5090009;28;20103;-80
2021/12/17 09:54:22;;;;;;;3.63;2.95;;;11.70;99.90;;;;;;5090821;28;20020;-78
2021/12/17 09:56:48;;;;;;;5.22;3.10;;;11.80;99.90;;;;;;5090340;28;20074;-78
2021/12/17 09:59:14;;;;;;;13.30;3.92;;;11.80;99.90;;;;;;5089610;28;20440;-78
2021/12/17 10:01:42;;;;;;;6.00;2.60;;;11.90;99.90;;;;;;5090067;28;20103;-77
2021/12/17 10:04:17;;;;;;;3.67;2.47;;;12.10;99.90;;;;;;5090181;28;20474;-77
2021/12/17 10:06:44;;;;;;;3.85;2.70;;;12.10;99.90;;;;;;5090553;28;20456;-79
2021/12/17 10:09:10;;;;;;;3.55;2.40;;;12.20;99.90;;;;;;5090686;28;20534;-76
2021/12/17 10:11:36;;;;;;;3.70;2.42;;;12.20;99.90;;;;;;5087940;28;20059;-76
2021/12/17 10:14:24;;;;;;;10.75;2.70;;;12.30;99.90;;;;;;5086798;28;20059;-77
2021/12/17 10:16:50;;;;;;;7.85;2.80;;;12.20;99.90;;;;;;5083599;28;20070;-78
2021/12/17 10:19:47;;;;;;;4.32;3.22;;;12.10;99.90;;;;;;5089484;28;20024;-78
2021/12/17 10:22:16;;;;;;;9.20;3.33;;;12.00;99.90;;;;;;5088922;28;20513;-79
2021/12/17 10:24:45;;;;;;;7.15;2.70;;;12.00;99.90;;;;;;5089715;28;20028;-77
2021/12/17 10:27:28;;;;;;;5.55;2.70;;;12.00;99.90;;;;;;5090026;28;20585;-78
2021/12/17 10:29:55;;;;;;;4.60;2.85;;;12.10;99.90;;;;;;5087027;28;20024;-77
2021/12/17 10:32:24;;;;;;;5.72;2.05;;;12.20;99.90;;;;;;5080854;28;20118;-77
2021/12/17 10:35:05;;;;;;;3.00;1.90;;;12.20;99.90;;;;;;5080649;28;20036;-78
2021/12/17 10:37:43;;;;;;;6.28;2.25;;;12.40;99.90;;;;;;5090518;28;20028;-78
2021/12/17 10:40:47;;;;;;;4.78;2.88;;;12.50;99.90;;;;;;5087644;28;20048;-77
2021/12/17 10:43:37;;;;;;;4.28;2.30;;;12.70;99.90;;;;;;5086705;28;20040;-77
2021/12/17 10:51:15;;;;;;;3.47;2.65;;;12.70;99.90;;;;;;5090091;28;20432;-78
2021/12/17 10:53:50;;;;;;;4.43;2.87;;;12.70;99.90;;;;;;5086695;28;20545;-77
2021/12/17 10:56:17;;;;;;;6.60;3.05;;;12.80;99.90;;;;;;5089575;28;20108;-78
2021/12/17 10:59:09;;;;;;;12.02;3.85;;;12.90;99.90;;;;;;5089012;28;20043;-78
2021/12/17 11:01:44;;;;;;;7.18;3.55;;;13.00;99.90;;;;;;5085266;28;20036;-76
2021/12/17 11:04:18;;;;;;;10.73;4.18;;;13.00;99.90;;;;;;5088410;28;20020;-78
2021/12/17 11:06:52;;;;;;;11.02;4.47;;;13.00;99.90;;;;;;5088972;28;20072;-78
2021/12/17 11:09:31;;;;;;;10.73;3.28;;;13.10;99.90;;;;;;5090557;28;20387;-77
2021/12/17 11:12:01;;;;;;;8.25;3.30;;;13.10;99.90;;;;;;5088809;28;20044;-78
2021/12/17 11:14:28;;;;;;;6.75;3.50;;;13.00;99.90;;;;;;5090204;28;20027;-79
2021/12/17 11:16:54;;;;;;;5.22;3.25;;;13.00;99.90;;;;;;5087880;28;20032;-79
2021/12/17 11:19:20;;;;;;;8.70;3.40;;;12.90;99.90;;;;;;5087897;28;20143;-78
2021/12/17 11:21:47;;;;;;;7.10;3.50;;;12.80;99.90;;;;;;5078696;28;20024;-77
2021/12/17 11:24:14;;;;;;;6.07;3.33;;;12.70;99.90;;;;;;5087647;28;20364;-80
2021/12/17 11:26:41;;;;;;;6.70;2.97;;;12.50;99.90;;;;;;5086638;28;20112;-78
2021/12/17 11:29:07;;;;;;;8.13;2.13;;;12.40;99.90;;;;;;5088631;28;20105;-77
2021/12/17 11:31:34;;;;;;;3.20;2.15;;;12.30;99.90;;;;;;5085740;28;20028;-80
2021/12/17 11:34:03;;;;;;;4.18;2.00;;;12.30;99.90;;;;;;5086885;28;20039;-77
2021/12/17 11:36:29;;;;;;;4.30;2.20;;;12.40;99.90;;;;;;5087735;28;20061;-81
2021/12/17 11:39:02;;;;;;;5.43;2.90;;;12.50;99.90;;;;;;5093765;28;20024;-80
2021/12/17 11:41:53;;;;;;;4.05;3.17;;;12.60;99.90;;;;;;5083733;28;20079;-83
2021/12/17 11:44:21;;;;;;;3.90;2.80;;;12.60;99.90;;;;;;5094241;28;20020;-80
2021/12/17 11:47:02;;;;;;;7.60;3.78;;;12.70;99.90;;;;;;5083028;28;20056;-77
2021/12/17 11:49:34;;;;;;;9.57;4.05;;;12.80;99.90;;;;;;5093319;28;20040;-79
2021/12/17 11:52:00;;;;;;;6.05;3.95;;;12.90;99.90;;;;;;5091732;28;20020;-79
2021/12/17 11:54:32;;;;;;;12.25;5.07;;;12.90;99.90;;;;;;5091772;28;20028;-77
2021/12/17 11:57:15;;;;;;;8.68;4.07;;;13.00;99.90;;;;;;5093931;28;20024;-82
2021/12/17 11:59:45;;;;;;;5.22;3.17;;;13.10;99.90;;;;;;5088973;28;20032;-77
2021/12/17 12:02:17;;;;;;;5.78;3.13;;;13.10;99.90;;;;;;5088663;28;20051;-79
2021/12/17 12:04:51;;;;;;;5.78;2.83;;;13.30;99.90;;;;;;5095049;28;20036;-78
2021/12/17 12:07:30;;;;;;;6.07;2.53;;;13.80;99.90;;;;;;5092780;28;20034;-78
2021/12/17 12:10:03;;;;;;;5.20;1.50;;;14.30;99.20;;;;;;5076772;28;20078;-77
2021/12/17 12:12:50;;;;;;;9.30;3.85;;;14.70;96.60;;;;;;5092728;28;20032;-77
2021/12/17 12:15:27;;;;;;;8.48;3.65;;;15.40;99.90;;;;;;5079653;28;20266;-78
2021/12/17 12:18:03;;;;;;;9.55;3.72;;;14.90;99.90;;;;;;5091972;28;20208;-77
2021/12/17 12:20:49;;;;;;;8.48;2.90;;;14.60;99.90;;;;;;5085036;28;20056;-77
2021/12/17 12:23:38;;;;;;;12.70;3.22;;;14.70;99.90;;;;;;5090265;28;20035;-78
2021/12/17 12:26:04;;;;;;;3.88;2.10;;;15.10;98.50;;;;;;5092165;28;20074;-77
2021/12/17 12:28:45;;;;;;;3.25;1.83;;;15.60;96.30;;;;;;5091544;28;20039;-77
2021/12/17 12:31:32;;;;;;;5.93;1.95;;;17.50;93.20;;;;;;5091326;28;20020;-78
2021/12/17 12:34:10;;;;;;;13.38;2.05;;;20.20;88.00;;;;;;5085315;28;20031;-83
2021/12/17 12:37:00;;;;;;;7.72;2.00;;;21.60;76.30;;;;;;5090725;28;20378;-77
2021/12/17 12:39:43;;;;;;;3.78;1.73;;;22.60;71.60;;;;;;5093508;28;20103;-82
2021/12/17 12:42:29;;;;;;;3.63;1.20;;;22.80;66.00;;;;;;5091699;28;20079;-77
2021/12/17 12:44:58;;;;;;;1.67;1.10;;;22.50;62.50;;;;;;5085443;28;20482;-79
2021/12/17 12:47:26;;;;;;;1.55;1.25;;;21.70;63.80;;;;;;5091744;28;20032;-77
2021/12/17 12:50:06;;;;;;;4.28;1.45;;;20.90;65.40;;;;;;5080475;28;20431;-77
2021/12/17 12:52:32;;;;;;;2.97;1.50;;;20.50;66.10;;;;;;5091836;28;20028;-77
2021/12/17 12:55:11;;;;;;;1.15;1.08;;;20.40;65.40;;;;;;5082993;28;20462;-78
2021/12/17 12:57:42;;;;;;;1.90;1.20;;;20.40;64.20;;;;;;5091813;28;20070;-78
2021/12/17 13:00:21;;;;;;;1.70;1.48;;;20.50;63.90;;;;;;5090069;28;20363;-79
2021/12/17 13:02:50;;;;;;;3.17;1.45;;;20.50;64.40;;;;;;5091979;28;20028;-78
2021/12/17 13:05:16;;;;;;;3.13;1.10;;;20.50;63.80;;;;;;5091605;28;20085;-78
2021/12/17 13:07:44;;;;;;;3.05;1.20;;;20.70;62.90;;;;;;5092146;28;20063;-78
2021/12/17 13:10:12;;;;;;;1.13;1.02;;;21.00;61.90;;;;;;5091707;28;20086;-79
2021/12/17 13:12:39;;;;;;;1.60;1.13;;;21.20;60.60;;;;;;5089220;28;20016;-78
2021/12/17 13:15:38;;;;;;;2.83;1.52;;;20.40;61.70;;;;;;5086701;28;20034;-79
2021/12/17 13:23:48;;;;;;;1.27;1.17;;;20.50;61.80;;;;;;5089952;28;20043;-78
2021/12/17 13:26:13;;;;;;;1.45;1.30;;;20.50;61.90;;;;;;5091121;28;20379;-78
2021/12/17 13:28:50;;;;;;;1.33;1.10;;;20.60;61.50;;;;;;5091544;28;20194;-78
2021/12/17 13:31:32;;;;;;;1.75;1.05;;;20.50;60.90;;;;;;5089842;28;20513;-78
2021/12/17 13:33:58;;;;;;;1.85;1.52;;;20.40;61.20;;;;;;5091199;28;20032;-78
2021/12/17 13:36:23;;;;;;;2.50;1.45;;;20.20;62.40;;;;;;5089462;28;20080;-78
2021/12/17 13:38:56;;;;;;;3.88;1.58;;;20.20;62.90;;;;;;5087710;28;20475;-78
2021/12/17 13:41:40;;;;;;;1.50;1.40;;;20.40;63.30;;;;;;5084237;28;20063;-78
2021/12/17 13:44:23;;;;;;;1.67;1.58;;;20.20;65.00;;;;;;5085431;28;20067;-79
2021/12/17 13:46:49;;;;;;;3.97;2.15;;;20.00;66.80;;;;;;5086943;28;20631;-77
2021/12/17 13:49:14;;;;;;;3.88;2.78;;;20.60;65.20;;;;;;5091388;28;20325;-80
2021/12/17 13:51:40;;;;;;;5.25;3.40;;;20.60;63.60;;;;;;5090606;28;20051;-78
2021/12/17 13:54:06;;;;;;;4.82;3.53;;;20.20;66.20;;;;;;5088339;28;20398;-79
2021/12/17 13:56:31;;;;;;;3.03;2.05;;;20.00;68.60;;;;;;5079622;28;20669;-77
2021/12/17 13:59:02;;;;;;;4.00;1.92;;;20.80;66.80;;;;;;5081551;28;20119;-77
2021/12/17 14:01:27;;;;;;;3.25;2.00;;;21.00;65.90;;;;;;5079322;28;20482;-79
2021/12/17 14:03:53;;;;;;;3.80;2.25;;;21.50;65.50;;;;;;5085248;28;20078;-77
2021/12/17 14:06:25;;;;;;;2.20;2.03;;;22.10;65.40;;;;;;5086789;28;20509;-77
2021/12/17 14:08:51;;;;;;;6.40;2.47;;;22.10;64.50;;;;;;5090846;28;20024;-79
2021/12/17 14:11:29;;;;;;;3.78;2.22;;;22.00;64.90;;;;;;5087908;28;20036;-79
2021/12/17 14:13:55;;;;;;;3.03;2.30;;;21.90;64.50;;;;;;5079472;28;20119;-80
2021/12/17 14:16:33;;;;;;;3.38;1.95;;;22.10;64.40;;;;;;5085398;28;20112;-79
2021/12/17 14:19:02;;;;;;;3.42;1.92;;;22.40;63.90;;;;;;5088575;28;20070;-79
2021/12/17 14:21:33;;;;;;;4.35;2.40;;;22.00;65.10;;;;;;5081868;28;20498;-79
2021/12/17 14:24:00;;;;;;;7.05;2.50;;;21.70;66.50;;;;;;5081612;28;20383;-78
2021/12/17 14:26:32;;;;;;;2.83;2.30;;;21.00;67.90;;;;;;5086305;28;20024;-78
2021/12/17 14:29:11;;;;;;;3.70;2.25;;;19.80;71.00;;;;;;5084963;28;20124;-77
2021/12/17 14:31:37;;;;;;;5.57;2.17;;;18.30;72.00;;;;;;5087286;28;20051;-80
2021/12/17 14:34:03;;;;;;;3.40;2.40;;;17.00;77.80;;;;;;5084432;28;20574;-79
2021/12/17 14:36:38;;;;;;;7.65;3.55;;;16.00;81.30;;;;;;5082044;28;20103;-77
2021/12/17 14:39:09;;;;;;;2.92;2.40;;;15.50;83.70;;;;;;5082706;28;20787;-80
2021/12/17 14:41:47;;;;;;;3.00;2.53;;;15.10;86.60;;;;;;5082309;28;20044;-78
2021/12/17 14:47:16;;;;;;;2.80;2.30;;;16.20;84.20;;;;;;5087282;28;20024;-77
2021/12/17 15:03:26;;;;;;;4.07;2.70;;;13.50;99.90;;;;;;5082239;28;20071;-78
2021/12/17 15:05:53;;;;;;;5.82;2.90;;;13.30;99.90;;;;;;5089739;28;20035;-78
2021/12/17 15:08:19;;;;;;;4.90;3.00;;;13.10;99.90;;;;;;5081462;28;20423;-80
2021/12/17 15:10:46;;;;;;;5.90;3.42;;;12.70;99.90;;;;;;5085891;28;20024;-81
2021/12/17 15:13:11;;;;;;;5.88;3.47;;;12.20;99.90;;;;;;5092967;28;20364;-81
2021/12/17 15:15:39;;;;;;;6.20;4.10;;;11.60;99.90;;;;;;5085101;28;20032;-81
2021/12/17 15:18:14;;;;;;;5.78;3.67;;;11.30;99.90;;;;;;5094116;28;20077;-80
2021/12/17 15:20:45;;;;;;;4.35;3.55;;;11.20;99.90;;;;;;5093960;28;20062;-80
2021/12/17 15:23:11;;;;;;;4.43;3.55;;;11.10;99.90;;;;;;5092447;28;20487;-80
2021/12/17 15:25:39;;;;;;;4.20;3.25;;;11.00;99.90;;;;;;5089906;28;20028;-81
2021/12/17 15:28:05;;;;;;;5.22;3.60;;;10.90;99.90;;;;;;5090894;28;20036;-79
2021/12/17 15:30:45;;;;;;;11.18;3.33;;;10.80;99.90;;;;;;5091455;28;20017;-80
2021/12/17 15:33:12;;;;;;;11.32;3.95;;;10.70;99.90;;;;;;5088904;28;20016;-80
2021/12/17 15:35:39;;;;;;;11.45;7.18;;;10.60;99.90;;;;;;5090853;28;20083;-79
2021/12/17 15:38:08;;;;;;;7.80;5.05;;;10.50;99.90;;;;;;5093812;28;20029;-80
2021/12/17 15:40:34;;;;;;;8.40;4.63;;;10.40;99.90;;;;;;5092024;28;20044;-79
2021/12/17 15:43:03;;;;;;;12.15;5.32;;;10.30;99.90;;;;;;5089520;28;20024;-80
2021/12/17 15:45:37;;;;;;;20.38;8.25;;;10.20;99.90;;;;;;5092457;28;20032;-80
2021/12/17 15:48:08;;;;;;;31.58;19.02;;;10.00;99.90;;;;;;5091350;28;20032;-80
2021/12/17 15:50:34;;;;;;;17.05;9.85;;;9.90;99.90;;;;;;5089527;28;20563;-81
2021/12/17 15:53:00;;;;;;;15.40;10.50;;;9.80;99.90;;;;;;5093120;28;20028;-80
2021/12/17 15:55:28;;;;;;;23.67;12.98;;;9.70;99.90;;;;;;5087618;28;20020;-79
2021/12/17 15:57:54;;;;;;;19.27;9.85;;;9.50;99.90;;;;;;5089940;28;20032;-81
2021/12/17 16:00:22;;;;;;;14.93;9.07;;;9.40;99.90;;;;;;5090310;28;20032;-80
2021/12/17 16:02:48;;;;;;;11.38;8.68;;;9.30;99.90;;;;;;5091000;28;20028;-80
2021/12/17 16:05:19;;;;;;;19.08;9.38;;;9.30;99.90;;;;;;5092983;28;20516;-80
2021/12/17 16:07:45;;;;;;;13.43;8.27;;;9.30;99.90;;;;;;5090796;28;20043;-80
2021/12/17 16:23:09;;;;;;;100.65;73.75;;;8.80;99.90;;;;;;5091853;28;20123;-81
2021/12/17 16:25:35;;;;;;;45.22;29.10;;;8.80;99.90;;;;;;5089776;28;20199;-81
2021/12/17 16:28:01;;;;;;;21.35;15.57;;;8.70;99.90;;;;;;5092591;28;20097;-82
2021/12/17 16:30:27;;;;;;;20.83;15.77;;;8.60;99.90;;;;;;5090973;28;20073;-80
2021/12/17 16:32:53;;;;;;;27.85;20.77;;;8.50;99.90;;;;;;5088341;28;20031;-80